createdAt,value
2017-11-11T00:00:09.654Z,6.73
2017-11-11T00:01:09.664Z,6.71
2017-11-11T00:02:09.713Z,6.79
2017-11-11T00:03:09.704Z,6.71
2017-11-11T00:04:09.717Z,6.77
2017-11-11T00:06:09.766Z,6.76
2017-11-11T00:08:24.393Z,6.74
2017-11-11T00:09:09.816Z,6.79
2017-11-11T00:10:09.813Z,6.81
2017-11-11T00:11:09.845Z,6.73
2017-11-11T00:12:24.462Z,6.7
2017-11-11T00:13:09.861Z,6.76
2017-11-11T00:14:09.902Z,6.7
2017-11-11T00:15:09.915Z,6.69
2017-11-11T00:16:09.278Z,6.74
2017-11-11T00:17:09.976Z,6.64
2017-11-11T00:18:09.955Z,6.74
2017-11-11T00:19:09.652Z,6.73
2017-11-11T00:20:24.601Z,6.73
2017-11-11T00:21:09.700Z,6.66
2017-11-11T00:22:10.038Z,6.71
2017-11-11T00:23:10.040Z,6.77
2017-11-11T00:24:09.752Z,6.7
2017-11-11T00:25:10.103Z,6.7
2017-11-11T00:27:10.109Z,6.7
2017-11-11T00:28:10.124Z,6.74
2017-11-11T00:29:10.147Z,6.71
2017-11-11T00:30:10.161Z,6.67
2017-11-11T00:31:24.777Z,6.71
2017-11-11T00:32:09.860Z,6.73
2017-11-11T00:33:10.225Z,6.71
2017-11-11T00:34:10.233Z,6.67
2017-11-11T00:35:09.916Z,6.71
2017-11-11T00:36:10.274Z,6.71
2017-11-11T00:37:10.276Z,6.76
2017-11-11T00:38:10.306Z,6.66
2017-11-11T00:39:10.309Z,6.7
2017-11-11T00:40:24.612Z,6.74
2017-11-11T00:41:10.347Z,6.7
2017-11-11T00:42:10.360Z,6.7
2017-11-11T00:43:10.373Z,6.76
2017-11-11T00:44:10.430Z,6.7
2017-11-11T00:45:10.415Z,6.73
2017-11-11T00:46:10.482Z,6.58
2017-11-11T00:47:10.461Z,6.64
2017-11-11T00:48:10.133Z,6.67
2017-11-11T00:49:10.478Z,6.67
2017-11-11T00:50:10.180Z,6.56
2017-11-11T00:51:25.125Z,6.69
2017-11-11T00:52:25.142Z,6.71
2017-11-11T00:53:10.548Z,6.74
2017-11-11T00:55:10.597Z,6.74
2017-11-11T00:56:24.887Z,6.55
2017-11-11T00:57:10.630Z,6.7
2017-11-11T00:58:09.991Z,6.74
2017-11-11T00:59:10.652Z,6.74
2017-11-11T01:00:10.672Z,6.7
2017-11-11T01:01:10.359Z,6.71
2017-11-11T01:02:10.398Z,6.64
2017-11-11T01:03:10.740Z,6.64
2017-11-11T01:04:10.729Z,6.61
2017-11-11T01:05:10.745Z,6.62
2017-11-11T01:06:10.799Z,6.67
2017-11-11T01:07:10.810Z,6.62
2017-11-11T01:08:10.803Z,6.67
2017-11-11T01:09:10.841Z,6.73
2017-11-11T01:10:25.442Z,6.71
2017-11-11T01:11:10.851Z,6.79
2017-11-11T01:12:25.472Z,6.73
2017-11-11T01:13:10.883Z,6.74
2017-11-11T01:15:10.951Z,6.71
2017-11-11T01:16:10.946Z,6.7
2017-11-11T01:17:10.938Z,6.73
2017-11-11T01:18:10.978Z,6.74
2017-11-11T01:20:11.000Z,6.64
2017-11-11T01:21:11.018Z,6.64
2017-11-11T01:22:10.739Z,6.67
2017-11-11T01:23:11.043Z,6.81
2017-11-11T01:24:11.095Z,6.76
2017-11-11T01:25:25.701Z,6.73
2017-11-11T01:26:11.111Z,6.71
2017-11-11T01:27:11.147Z,6.7
2017-11-11T01:28:25.745Z,6.64
2017-11-11T01:29:11.189Z,6.66
2017-11-11T01:30:11.182Z,6.64
2017-11-11T01:31:11.205Z,6.67
2017-11-11T01:32:10.874Z,6.77
2017-11-11T01:33:11.231Z,6.62
2017-11-11T01:34:10.931Z,6.67
2017-11-11T01:35:11.286Z,6.61
2017-11-11T01:36:11.279Z,6.76
2017-11-11T01:37:25.888Z,6.62
2017-11-11T01:38:11.300Z,6.69
2017-11-11T01:39:11.040Z,6.67
2017-11-11T01:40:11.339Z,6.61
2017-11-11T01:41:11.353Z,6.62
2017-11-11T01:42:11.394Z,6.67
2017-11-11T01:43:25.997Z,6.61
2017-11-11T01:45:11.434Z,6.59
2017-11-11T01:46:11.142Z,6.62
2017-11-11T01:47:11.471Z,6.73
2017-11-11T01:48:11.485Z,6.7
2017-11-11T01:49:11.500Z,6.62
2017-11-11T01:50:11.524Z,6.61
2017-11-11T01:51:11.554Z,6.59
2017-11-11T01:52:11.564Z,6.62
2017-11-11T01:53:11.574Z,6.74
2017-11-11T01:54:11.590Z,6.74
2017-11-11T01:55:11.606Z,6.76
2017-11-11T01:56:11.616Z,6.73
2017-11-11T01:57:11.629Z,6.7
2017-11-11T01:58:11.319Z,6.61
2017-11-11T01:59:11.362Z,6.56
2017-11-11T02:00:11.695Z,6.59
2017-11-11T02:01:11.696Z,6.56
2017-11-11T02:02:11.061Z,6.56
2017-11-11T02:03:11.733Z,6.64
2017-11-11T02:04:11.767Z,6.61
2017-11-11T02:05:11.783Z,6.61
2017-11-11T02:06:11.794Z,6.69
2017-11-11T02:07:26.400Z,6.56
2017-11-11T02:08:11.831Z,6.52
2017-11-11T02:09:11.511Z,6.66
2017-11-11T02:10:11.879Z,6.64
2017-11-11T02:11:11.860Z,6.52
2017-11-11T02:12:26.495Z,6.7
2017-11-11T02:13:11.917Z,6.69
2017-11-11T02:14:12.269Z,6.69
2017-11-11T02:15:26.540Z,6.56
2017-11-11T02:16:11.942Z,6.55
2017-11-11T02:17:11.969Z,6.56
2017-11-11T02:18:11.658Z,6.59
2017-11-11T02:19:12.001Z,6.64
2017-11-11T02:20:12.016Z,6.66
2017-11-11T02:21:12.024Z,6.56
2017-11-11T02:22:12.049Z,6.61
2017-11-11T02:23:12.091Z,6.64
2017-11-11T02:24:12.084Z,6.56
2017-11-11T02:25:26.716Z,6.59
2017-11-11T02:26:12.129Z,6.58
2017-11-11T02:27:12.143Z,6.59
2017-11-11T02:28:12.166Z,6.51
2017-11-11T02:29:12.171Z,6.59
2017-11-11T02:30:11.865Z,6.62
2017-11-11T02:32:12.221Z,6.59
2017-11-11T02:33:12.245Z,6.59
2017-11-11T02:34:12.255Z,6.55
2017-11-11T02:35:12.275Z,6.58
2017-11-11T02:36:12.313Z,6.59
2017-11-11T02:37:12.300Z,6.56
2017-11-11T02:38:12.423Z,6.58
2017-11-11T02:39:26.940Z,6.56
2017-11-11T02:40:26.966Z,6.56
2017-11-11T02:41:12.376Z,6.61
2017-11-11T02:42:12.406Z,6.55
2017-11-11T02:43:12.418Z,6.52
2017-11-11T02:44:12.424Z,6.55
2017-11-11T02:45:12.457Z,6.58
2017-11-11T02:46:12.456Z,6.64
2017-11-11T02:47:27.071Z,6.51
2017-11-11T02:48:12.489Z,6.61
2017-11-11T02:49:12.509Z,6.59
2017-11-11T02:50:27.127Z,6.71
2017-11-11T02:51:27.149Z,6.74
2017-11-11T02:52:12.578Z,6.64
2017-11-11T02:53:27.174Z,6.62
2017-11-11T02:54:12.598Z,6.61
2017-11-11T02:55:12.608Z,6.61
2017-11-11T02:56:12.634Z,6.56
2017-11-11T02:57:12.648Z,6.56
2017-11-11T02:58:12.701Z,6.66
2017-11-11T02:59:12.354Z,6.55
2017-11-11T03:00:12.365Z,6.55
2017-11-11T03:01:12.722Z,6.61
2017-11-11T03:02:12.729Z,6.54
2017-11-11T03:03:27.355Z,6.56
2017-11-11T03:04:12.768Z,6.55
2017-11-11T03:05:12.785Z,6.61
2017-11-11T03:06:12.805Z,6.55
2017-11-11T03:07:12.814Z,6.64
2017-11-11T03:08:27.426Z,6.74
2017-11-11T03:09:12.854Z,6.71
2017-11-11T03:10:12.860Z,6.7
2017-11-11T03:11:12.549Z,6.55
2017-11-11T03:12:12.902Z,6.54
2017-11-11T03:13:12.900Z,6.62
2017-11-11T03:14:12.942Z,6.71
2017-11-11T03:15:12.631Z,6.69
2017-11-11T03:16:27.566Z,6.7
2017-11-11T03:17:12.971Z,6.69
2017-11-11T03:18:27.596Z,6.64
2017-11-11T03:19:12.999Z,6.61
2017-11-11T03:20:13.029Z,6.69
2017-11-11T03:21:13.036Z,6.62
2017-11-11T03:22:13.076Z,6.69
2017-11-11T03:23:13.099Z,6.71
2017-11-11T03:24:13.122Z,6.73
2017-11-11T03:25:13.116Z,6.64
2017-11-11T03:27:13.153Z,6.7
2017-11-11T03:28:13.166Z,6.76
2017-11-11T03:29:13.184Z,6.77
2017-11-11T03:31:13.262Z,6.7
2017-11-11T03:32:13.232Z,6.71
2017-11-11T03:33:13.260Z,6.73
2017-11-11T03:34:13.264Z,6.66
2017-11-11T03:35:13.291Z,6.73
2017-11-11T03:36:13.288Z,6.74
2017-11-11T03:37:12.983Z,6.76
2017-11-11T03:38:13.005Z,6.67
2017-11-11T03:39:13.340Z,6.71
2017-11-11T03:40:13.367Z,6.67
2017-11-11T03:41:13.398Z,6.74
2017-11-11T03:42:28.018Z,6.62
2017-11-11T03:43:13.419Z,6.73
2017-11-11T03:44:13.099Z,6.67
2017-11-11T03:45:13.434Z,6.7
2017-11-11T03:46:13.465Z,6.71
2017-11-11T03:47:28.091Z,6.71
2017-11-11T03:48:13.494Z,6.66
2017-11-11T03:49:13.521Z,6.67
2017-11-11T03:50:28.137Z,6.74
2017-11-11T03:51:13.549Z,6.76
2017-11-11T03:52:13.255Z,6.71
2017-11-11T03:53:13.589Z,6.67
2017-11-11T03:54:13.596Z,6.77
2017-11-11T03:55:28.214Z,6.77
2017-11-11T03:56:13.319Z,6.77
2017-11-11T03:57:13.636Z,6.69
2017-11-11T03:58:13.656Z,6.66
2017-11-11T03:59:13.702Z,6.76
2017-11-11T04:00:13.701Z,6.7
2017-11-11T04:01:13.718Z,6.74
2017-11-11T04:02:13.736Z,6.77
2017-11-11T04:03:13.756Z,6.62
2017-11-11T04:04:28.373Z,6.73
2017-11-11T04:05:13.791Z,6.7
2017-11-11T04:06:28.417Z,6.7
2017-11-11T04:07:13.828Z,6.77
2017-11-11T04:08:13.518Z,6.71
2017-11-11T04:09:13.881Z,6.71
2017-11-11T04:10:13.541Z,6.76
2017-11-11T04:11:13.888Z,6.74
2017-11-11T04:12:13.906Z,6.73
2017-11-11T04:13:13.911Z,6.73
2017-11-11T04:14:13.935Z,6.74
2017-11-11T04:15:28.562Z,6.74
2017-11-11T04:16:13.646Z,6.85
2017-11-11T04:17:13.977Z,6.77
2017-11-11T04:18:14.004Z,6.71
2017-11-11T04:19:14.035Z,6.74
2017-11-11T04:20:28.642Z,6.71
2017-11-11T04:21:14.064Z,6.69
2017-11-11T04:22:28.667Z,6.73
2017-11-11T04:23:14.075Z,6.69
2017-11-11T04:24:14.095Z,6.73
2017-11-11T04:25:14.110Z,6.74
2017-11-11T04:26:14.128Z,6.74
2017-11-11T04:27:14.165Z,6.8
2017-11-11T04:28:28.772Z,6.73
2017-11-11T04:29:14.196Z,6.71
2017-11-11T04:30:28.804Z,6.7
2017-11-11T04:31:14.227Z,6.74
2017-11-11T04:32:13.914Z,6.76
2017-11-11T04:33:14.250Z,6.74
2017-11-11T04:34:14.278Z,6.76
2017-11-11T04:35:14.278Z,6.81
2017-11-11T04:36:14.297Z,6.67
2017-11-11T04:37:14.327Z,6.74
2017-11-11T04:38:28.945Z,6.85
2017-11-11T04:39:14.356Z,6.81
2017-11-11T04:40:14.368Z,6.73
2017-11-11T04:41:14.419Z,6.77
2017-11-11T04:42:14.082Z,6.8
2017-11-11T04:43:14.415Z,6.74
2017-11-11T04:44:14.454Z,6.91
2017-11-11T04:45:29.058Z,6.81
2017-11-11T04:46:14.472Z,6.74
2017-11-11T04:47:14.480Z,6.7
2017-11-11T04:48:14.506Z,6.74
2017-11-11T04:49:14.538Z,6.7
2017-11-11T04:50:14.224Z,6.77
2017-11-11T04:51:14.559Z,6.77
2017-11-11T04:52:14.568Z,6.79
2017-11-11T04:53:29.204Z,6.76
2017-11-11T04:55:14.614Z,6.8
2017-11-11T04:56:14.649Z,6.88
2017-11-11T04:57:14.660Z,6.85
2017-11-11T04:58:14.688Z,6.92
2017-11-11T04:59:14.370Z,6.94
2017-11-11T05:00:29.308Z,6.81
2017-11-11T05:01:14.721Z,6.7
2017-11-11T05:02:14.410Z,6.71
2017-11-11T05:03:14.437Z,6.79
2017-11-11T05:04:14.788Z,6.76
2017-11-11T05:05:14.474Z,6.71
2017-11-11T05:06:14.843Z,6.71
2017-11-11T05:07:14.843Z,6.77
2017-11-11T05:08:14.842Z,6.77
2017-11-11T05:09:14.865Z,6.84
2017-11-11T05:10:14.873Z,6.71
2017-11-11T05:11:14.906Z,6.8
2017-11-11T05:12:14.921Z,6.76
2017-11-11T05:13:14.603Z,6.87
2017-11-11T05:14:14.955Z,6.73
2017-11-11T05:15:14.964Z,6.71
2017-11-11T05:16:29.581Z,6.85
2017-11-11T05:17:15.017Z,6.8
2017-11-11T05:19:15.035Z,6.81
2017-11-11T05:20:29.660Z,6.87
2017-11-11T05:21:15.063Z,6.76
2017-11-11T05:22:15.074Z,6.76
2017-11-11T05:24:15.119Z,6.84
2017-11-11T05:25:29.744Z,6.8
2017-11-11T05:26:15.158Z,6.8
2017-11-11T05:27:14.840Z,6.84
2017-11-11T05:28:15.194Z,6.71
2017-11-11T05:29:14.560Z,6.81
2017-11-11T05:31:29.833Z,6.88
2017-11-11T05:32:15.238Z,6.88
2017-11-11T05:33:15.267Z,6.87
2017-11-11T05:34:15.279Z,6.8
2017-11-11T05:35:15.291Z,6.71
2017-11-11T05:36:15.306Z,6.79
2017-11-11T05:37:15.328Z,6.71
2017-11-11T05:39:15.050Z,6.69
2017-11-11T05:40:15.392Z,6.69
2017-11-11T05:41:30.011Z,6.74
2017-11-11T05:42:15.435Z,6.74
2017-11-11T05:44:15.465Z,6.71
2017-11-11T05:45:15.457Z,6.52
2017-11-11T05:46:15.486Z,6.56
2017-11-11T05:47:15.513Z,6.59
2017-11-11T05:48:15.527Z,6.56
2017-11-11T05:49:15.536Z,6.58
2017-11-11T05:50:15.552Z,6.52
2017-11-11T05:51:15.564Z,6.55
2017-11-11T05:52:15.606Z,6.51
2017-11-11T05:53:15.284Z,6.54
2017-11-11T05:54:15.629Z,6.58
2017-11-11T05:55:15.671Z,6.49
2017-11-11T05:56:30.263Z,6.55
2017-11-11T05:57:30.620Z,6.55
2017-11-11T05:58:15.699Z,6.49
2017-11-11T05:59:30.322Z,6.54
2017-11-11T06:00:15.731Z,6.59
2017-11-11T06:01:15.744Z,6.64
2017-11-11T06:02:15.442Z,6.54
2017-11-11T06:03:30.372Z,6.51
2017-11-11T06:04:15.794Z,6.55
2017-11-11T06:05:15.811Z,6.58
2017-11-11T06:06:15.810Z,6.55
2017-11-11T06:07:15.829Z,6.56
2017-11-11T06:08:30.466Z,6.52
2017-11-11T06:09:15.865Z,6.51
2017-11-11T06:10:15.890Z,6.56
2017-11-11T06:11:15.897Z,6.61
2017-11-11T06:12:15.590Z,6.56
2017-11-11T06:13:30.539Z,6.55
2017-11-11T06:14:15.647Z,6.61
2017-11-11T06:15:15.964Z,6.67
2017-11-11T06:16:15.993Z,6.56
2017-11-11T06:17:16.018Z,6.58
2017-11-11T06:18:16.017Z,6.69
2017-11-11T06:19:16.037Z,6.56
2017-11-11T06:20:16.065Z,6.56
2017-11-11T06:21:16.072Z,6.59
2017-11-11T06:22:16.105Z,6.59
2017-11-11T06:23:16.094Z,6.55
2017-11-11T06:24:16.110Z,6.66
2017-11-11T06:25:15.808Z,6.62
2017-11-11T06:26:16.167Z,6.58
2017-11-11T06:27:16.204Z,6.61
2017-11-11T06:28:30.797Z,6.69
2017-11-11T06:29:16.206Z,6.61
2017-11-11T06:30:16.236Z,6.59
2017-11-11T06:31:16.251Z,6.56
2017-11-11T06:32:16.253Z,6.67
2017-11-11T06:33:30.876Z,6.59
2017-11-11T06:34:16.292Z,6.62
2017-11-11T06:35:16.299Z,6.59
2017-11-11T06:36:16.312Z,6.62
2017-11-11T06:37:16.026Z,6.67
2017-11-11T06:38:16.357Z,6.56
2017-11-11T06:39:16.064Z,6.59
2017-11-11T06:41:16.426Z,6.59
2017-11-11T06:42:16.429Z,6.62
2017-11-11T06:44:16.464Z,6.58
2017-11-11T06:45:16.149Z,6.58
2017-11-11T06:46:16.492Z,6.49
2017-11-11T06:47:16.523Z,6.52
2017-11-11T06:48:16.527Z,6.49
2017-11-11T06:49:16.535Z,6.59
2017-11-11T06:50:16.552Z,6.55
2017-11-11T06:51:16.584Z,6.55
2017-11-11T06:52:16.593Z,6.51
2017-11-11T06:53:16.283Z,6.55
2017-11-11T06:54:16.656Z,6.41
2017-11-11T06:55:16.635Z,6.37
2017-11-11T06:56:16.658Z,6.48
2017-11-11T06:57:16.691Z,6.34
2017-11-11T06:58:16.361Z,6.43
2017-11-11T06:59:16.711Z,6.38
2017-11-11T07:00:31.338Z,6.49
2017-11-11T07:01:16.729Z,6.43
2017-11-11T07:02:16.765Z,6.34
2017-11-11T07:03:16.773Z,6.4
2017-11-11T07:04:16.809Z,6.4
2017-11-11T07:05:16.814Z,6.37
2017-11-11T07:06:31.426Z,6.37
2017-11-11T07:07:16.839Z,6.28
2017-11-11T07:08:16.850Z,6.4
2017-11-11T07:09:16.894Z,6.43
2017-11-11T07:11:16.913Z,6.48
2017-11-11T07:12:16.930Z,6.44
2017-11-11T07:13:16.950Z,6.46
2017-11-11T07:14:16.951Z,6.46
2017-11-11T07:15:16.661Z,6.38
2017-11-11T07:16:31.596Z,6.41
2017-11-11T07:17:16.683Z,6.49
2017-11-11T07:18:17.020Z,6.41
2017-11-11T07:19:17.039Z,6.41
2017-11-11T07:20:17.066Z,6.43
2017-11-11T07:21:17.104Z,6.38
2017-11-11T07:22:17.088Z,6.52
2017-11-11T07:23:31.725Z,6.51
2017-11-11T07:24:17.120Z,6.54
2017-11-11T07:25:17.161Z,6.52
2017-11-11T07:26:17.153Z,6.51
2017-11-11T07:27:17.177Z,6.56
2017-11-11T07:28:17.207Z,6.59
2017-11-11T07:29:17.219Z,6.56
2017-11-11T07:30:17.239Z,6.52
2017-11-11T07:31:17.237Z,6.56
2017-11-11T07:32:31.862Z,6.66
2017-11-11T07:33:17.292Z,6.59
2017-11-11T07:34:17.305Z,6.79
2017-11-11T07:35:17.320Z,6.71
2017-11-11T07:36:17.339Z,6.71
2017-11-11T07:37:17.357Z,6.67
2017-11-11T07:38:17.360Z,6.8
2017-11-11T07:39:31.983Z,6.81
2017-11-11T07:40:17.397Z,6.8
2017-11-11T07:41:17.417Z,6.76
2017-11-11T07:42:17.456Z,6.92
2017-11-11T07:43:17.450Z,6.91
2017-11-11T07:46:17.508Z,6.88
2017-11-11T07:47:17.517Z,6.76
2017-11-11T07:48:32.136Z,6.76
2017-11-11T07:49:17.573Z,6.84
2017-11-11T07:50:17.570Z,6.7
2017-11-11T07:51:17.582Z,6.84
2017-11-11T07:53:17.619Z,6.74
2017-11-11T07:54:17.625Z,6.71
2017-11-11T07:55:17.642Z,6.77
2017-11-11T07:56:17.673Z,6.8
2017-11-11T07:57:17.678Z,6.87
2017-11-11T07:58:17.698Z,6.91
2017-11-11T08:00:17.742Z,6.94
2017-11-11T08:01:17.769Z,6.97
2017-11-11T08:02:17.776Z,6.97
2017-11-11T08:03:32.408Z,7.13
2017-11-11T08:04:17.842Z,6.95
2017-11-11T08:05:17.829Z,6.94
2017-11-11T08:06:17.840Z,6.95
2017-11-11T08:07:17.883Z,6.92
2017-11-11T08:08:17.874Z,6.92
2017-11-11T08:09:32.495Z,6.92
2017-11-11T08:10:32.193Z,6.88
2017-11-11T08:11:17.918Z,6.85
2017-11-11T08:12:17.949Z,6.89
2017-11-11T08:13:17.648Z,6.84
2017-11-11T08:14:17.995Z,6.97
2017-11-11T08:15:18.004Z,6.98
2017-11-11T08:16:17.381Z,6.98
2017-11-11T08:17:32.640Z,7.06
2017-11-11T08:18:18.052Z,7.16
2017-11-11T08:19:18.087Z,7.16
2017-11-11T08:20:18.093Z,7.13
2017-11-11T08:21:17.454Z,7.28
2017-11-11T08:22:18.124Z,7.23
2017-11-11T08:23:18.164Z,7.27
2017-11-11T08:24:18.160Z,7.31
2017-11-11T08:25:18.188Z,7.28
2017-11-11T08:26:18.191Z,7.34
2017-11-11T08:27:18.233Z,7.35
2017-11-11T08:28:18.236Z,7.39
2017-11-11T08:29:18.261Z,7.39
2017-11-11T08:30:18.282Z,7.39
2017-11-11T08:31:17.960Z,7.37
2017-11-11T08:32:18.296Z,7.35
2017-11-11T08:33:18.319Z,7.35
2017-11-11T08:34:18.338Z,7.35
2017-11-11T08:36:18.352Z,7.25
2017-11-11T08:37:18.387Z,7.3
2017-11-11T08:38:18.408Z,7.24
2017-11-11T08:39:18.440Z,7.24
2017-11-11T08:41:18.462Z,7.25
2017-11-11T08:42:18.477Z,7.24
2017-11-11T08:43:18.171Z,7.25
2017-11-11T08:44:18.509Z,7.21
2017-11-11T08:45:18.511Z,7.24
2017-11-11T08:46:18.543Z,7.25
2017-11-11T08:47:18.566Z,7.24
2017-11-11T08:48:18.579Z,7.25
2017-11-11T08:50:18.622Z,7.27
2017-11-11T08:52:18.318Z,7.21
2017-11-11T08:53:18.671Z,7.25
2017-11-11T08:54:18.679Z,7.27
2017-11-11T08:55:18.701Z,7.37
2017-11-11T08:56:18.725Z,7.42
2017-11-11T08:57:18.733Z,7.37
2017-11-11T08:59:18.442Z,7.37
2017-11-11T09:00:18.791Z,7.34
2017-11-11T09:01:18.793Z,7.37
2017-11-11T09:02:18.503Z,7.34
2017-11-11T09:03:18.841Z,7.34
2017-11-11T09:04:33.463Z,7.32
2017-11-11T09:05:18.884Z,7.27
2017-11-11T09:06:18.901Z,7.24
2017-11-11T09:07:33.512Z,7.13
2017-11-11T09:08:18.932Z,7.15
2017-11-11T09:09:18.957Z,7.16
2017-11-11T09:10:18.953Z,7.13
2017-11-11T09:11:18.977Z,7.13
2017-11-11T09:12:18.989Z,7.12
2017-11-11T09:13:18.691Z,7.15
2017-11-11T09:14:19.031Z,7.17
2017-11-11T09:15:19.045Z,7.16
2017-11-11T09:16:19.058Z,7.15
2017-11-11T09:17:33.689Z,7.1
2017-11-11T09:18:19.089Z,7.1
2017-11-11T09:19:18.795Z,7.16
2017-11-11T09:20:18.813Z,7.1
2017-11-11T09:21:18.824Z,7.07
2017-11-11T09:22:19.175Z,7.05
2017-11-11T09:23:33.791Z,7.13
2017-11-11T09:24:19.221Z,7.13
2017-11-11T09:25:19.221Z,7.13
2017-11-11T09:26:33.522Z,7.15
2017-11-11T09:27:19.250Z,7.17
2017-11-11T09:28:19.265Z,7.13
2017-11-11T09:29:19.291Z,7.23
2017-11-11T09:30:33.900Z,7.15
2017-11-11T09:31:19.014Z,7.12
2017-11-11T09:32:19.333Z,7.2
2017-11-11T09:33:19.364Z,7.21
2017-11-11T09:34:19.386Z,7.13
2017-11-11T09:36:34.014Z,7.07
2017-11-11T09:37:19.423Z,7.09
2017-11-11T09:38:34.052Z,7.13
2017-11-11T09:39:19.469Z,7.17
2017-11-11T09:40:19.178Z,7.23
2017-11-11T09:41:19.505Z,7.28
2017-11-11T09:42:19.523Z,7.25
2017-11-11T09:43:19.528Z,7.37
2017-11-11T09:44:19.549Z,7.37
2017-11-11T09:45:19.568Z,7.42
2017-11-11T09:46:34.177Z,7.42
2017-11-11T09:47:19.611Z,7.39
2017-11-11T09:48:19.613Z,7.4
2017-11-11T09:49:19.655Z,7.39
2017-11-11T09:50:19.644Z,7.4
2017-11-11T09:52:19.695Z,7.39
2017-11-11T09:53:19.692Z,7.35
2017-11-11T09:54:19.715Z,7.34
2017-11-11T09:56:19.767Z,7.5
2017-11-11T09:57:19.775Z,7.52
2017-11-11T09:58:19.798Z,7.53
2017-11-11T09:59:19.481Z,7.46
2017-11-11T10:00:19.830Z,7.4
2017-11-11T10:01:19.847Z,7.48
2017-11-11T10:02:19.857Z,7.53
2017-11-11T10:03:19.877Z,7.5
2017-11-11T10:04:34.508Z,7.5
2017-11-11T10:05:19.911Z,7.49
2017-11-11T10:06:19.926Z,7.46
2017-11-11T10:07:19.968Z,7.52
2017-11-11T10:08:19.956Z,7.53
2017-11-11T10:09:19.997Z,7.6
2017-11-11T10:10:34.602Z,7.55
2017-11-11T10:11:20.010Z,7.63
2017-11-11T10:12:20.034Z,7.61
2017-11-11T10:13:20.053Z,7.52
2017-11-11T10:14:20.085Z,7.68
2017-11-11T10:15:19.771Z,7.6
2017-11-11T10:16:20.110Z,7.61
2017-11-11T10:17:20.128Z,7.75
2017-11-11T10:18:20.151Z,7.87
2017-11-11T10:19:20.155Z,7.95
2017-11-11T10:20:20.191Z,8.16
2017-11-11T10:21:20.187Z,8.15
2017-11-11T10:22:20.221Z,8.18
2017-11-11T10:23:20.222Z,8.26
2017-11-11T10:24:20.249Z,8.38
2017-11-11T10:25:20.253Z,8.45
2017-11-11T10:26:34.895Z,8.48
2017-11-11T10:27:20.300Z,8.5
2017-11-11T10:28:20.316Z,8.48
2017-11-11T10:29:20.331Z,8.68
2017-11-11T10:30:20.365Z,8.63
2017-11-11T10:31:20.376Z,8.62
2017-11-11T10:32:20.392Z,8.65
2017-11-11T10:33:20.438Z,8.61
2017-11-11T10:34:20.435Z,8.55
2017-11-11T10:35:20.446Z,8.56
2017-11-11T10:36:20.159Z,8.56
2017-11-11T10:37:20.483Z,8.37
2017-11-11T10:38:20.504Z,8.41
2017-11-11T10:39:20.522Z,8.36
2017-11-11T10:40:20.555Z,8.28
2017-11-11T10:41:20.545Z,8.26
2017-11-11T10:42:35.184Z,8.07
2017-11-11T10:43:20.590Z,8.02
2017-11-11T10:44:20.611Z,8.11
2017-11-11T10:45:20.636Z,8.08
2017-11-11T10:47:20.665Z,8.1
2017-11-11T10:48:20.699Z,8.07
2017-11-11T10:49:20.702Z,8.07
2017-11-11T10:50:20.722Z,8.08
2017-11-11T10:51:20.737Z,8.05
2017-11-11T10:53:20.455Z,7.93
2017-11-11T10:54:20.794Z,7.83
2017-11-11T10:55:20.489Z,7.86
2017-11-11T10:56:20.835Z,7.87
2017-11-11T10:58:35.465Z,7.79
2017-11-11T10:59:20.881Z,7.74
2017-11-11T11:00:20.916Z,7.77
2017-11-11T11:01:20.945Z,7.67
2017-11-11T11:02:20.615Z,7.61
2017-11-11T11:03:20.958Z,7.55
2017-11-11T11:04:20.974Z,7.69
2017-11-11T11:05:35.269Z,7.64
2017-11-11T11:06:21.000Z,7.69
2017-11-11T11:07:21.044Z,7.74
2017-11-11T11:08:20.733Z,7.68
2017-11-11T11:09:21.062Z,7.61
2017-11-11T11:10:21.082Z,7.67
2017-11-11T11:11:20.776Z,7.67
2017-11-11T11:12:21.119Z,7.69
2017-11-11T11:13:35.734Z,7.69
2017-11-11T11:14:20.826Z,7.64
2017-11-11T11:15:21.178Z,7.58
2017-11-11T11:16:21.179Z,7.58
2017-11-11T11:17:21.217Z,7.58
2017-11-11T11:18:21.225Z,7.63
2017-11-11T11:19:21.251Z,7.72
2017-11-11T11:20:21.268Z,7.63
2017-11-11T11:22:21.313Z,7.9
2017-11-11T11:23:21.372Z,7.86
2017-11-11T11:24:21.343Z,8
2017-11-11T11:25:21.363Z,7.89
2017-11-11T11:26:21.038Z,8
2017-11-11T11:27:21.396Z,8.04
2017-11-11T11:28:21.408Z,8
2017-11-11T11:29:21.415Z,8.01
2017-11-11T11:30:21.443Z,8.02
2017-11-11T11:31:21.133Z,8.1
2017-11-11T11:32:21.478Z,7.92
2017-11-11T11:33:21.530Z,7.82
2017-11-11T11:34:21.497Z,7.86
2017-11-11T11:35:21.556Z,7.8
2017-11-11T11:36:21.561Z,7.82
2017-11-11T11:37:21.577Z,7.82
2017-11-11T11:38:21.588Z,7.8
2017-11-11T11:39:21.595Z,7.64
2017-11-11T11:40:21.613Z,7.75
2017-11-11T11:41:21.660Z,7.72
2017-11-11T11:42:21.662Z,7.72
2017-11-11T11:43:21.674Z,7.63
2017-11-11T11:44:21.696Z,7.57
2017-11-11T11:45:36.316Z,7.58
2017-11-11T11:46:21.752Z,7.69
2017-11-11T11:47:21.761Z,7.63
2017-11-11T11:48:21.761Z,7.79
2017-11-11T11:49:21.781Z,7.69
2017-11-11T11:50:21.804Z,7.77
2017-11-11T11:51:21.823Z,7.85
2017-11-11T11:52:21.517Z,7.83
2017-11-11T11:53:21.543Z,7.93
2017-11-11T11:54:21.866Z,7.82
2017-11-11T11:55:21.568Z,7.89
2017-11-11T11:56:36.517Z,7.86
2017-11-11T11:57:21.920Z,7.92
2017-11-11T11:58:21.935Z,7.87
2017-11-11T12:00:21.976Z,7.87
2017-11-11T12:01:36.589Z,7.85
2017-11-11T12:03:22.052Z,7.85
2017-11-11T12:04:22.038Z,7.83
2017-11-11T12:05:36.665Z,7.85
2017-11-11T12:06:22.091Z,7.89
2017-11-11T12:07:22.107Z,7.85
2017-11-11T12:08:22.122Z,7.85
2017-11-11T12:09:21.815Z,7.89
2017-11-11T12:10:22.163Z,7.83
2017-11-11T12:11:22.170Z,7.71
2017-11-11T12:12:21.855Z,7.68
2017-11-11T12:13:22.216Z,7.79
2017-11-11T12:14:22.231Z,7.83
2017-11-11T12:15:22.242Z,7.82
2017-11-11T12:16:22.271Z,7.87
2017-11-11T12:17:36.561Z,7.87
2017-11-11T12:18:22.301Z,7.92
2017-11-11T12:19:22.324Z,8
2017-11-11T12:20:22.318Z,8.07
2017-11-11T12:21:36.954Z,8.15
2017-11-11T12:22:36.966Z,8.23
2017-11-11T12:23:22.387Z,8.23
2017-11-11T12:24:22.086Z,8.07
2017-11-11T12:25:22.419Z,8.1
2017-11-11T12:26:22.435Z,8.08
2017-11-11T12:27:22.469Z,8.07
2017-11-11T12:28:22.148Z,8.22
2017-11-11T12:29:22.167Z,8.25
2017-11-11T12:30:22.516Z,8.25
2017-11-11T12:31:22.553Z,8.26
2017-11-11T12:32:22.550Z,8.22
2017-11-11T12:33:37.161Z,8.16
2017-11-11T12:34:22.615Z,8.16
2017-11-11T12:35:22.616Z,8.2
2017-11-11T12:37:22.638Z,8.19
2017-11-11T12:38:22.687Z,8.19
2017-11-11T12:39:22.355Z,8.25
2017-11-11T12:40:22.712Z,8.18
2017-11-11T12:41:22.737Z,8.26
2017-11-11T12:42:22.732Z,8.34
2017-11-11T12:43:37.356Z,8.26
2017-11-11T12:44:22.434Z,8.28
2017-11-11T12:45:37.394Z,8.19
2017-11-11T12:46:22.818Z,8.16
2017-11-11T12:47:22.820Z,8.22
2017-11-11T12:48:37.439Z,8.29
2017-11-11T12:50:23.222Z,8.34
2017-11-11T12:52:22.922Z,8.44
2017-11-11T12:53:22.931Z,8.41
2017-11-11T12:54:22.955Z,8.44
2017-11-11T12:55:22.996Z,8.44
2017-11-11T12:56:22.986Z,8.34
2017-11-11T12:57:23.005Z,8.3
2017-11-11T12:58:23.024Z,8.34
2017-11-11T12:59:23.037Z,8.23
2017-11-11T13:01:23.098Z,8.25
2017-11-11T13:02:23.092Z,8.36
2017-11-11T13:03:23.114Z,8.33
2017-11-11T13:04:23.126Z,8.29
2017-11-11T13:05:23.156Z,8.25
2017-11-11T13:07:23.208Z,8.25
2017-11-11T13:08:23.187Z,8.23
2017-11-11T13:09:23.212Z,8.23
2017-11-11T13:10:23.248Z,8.26
2017-11-11T13:11:22.604Z,8.08
2017-11-11T13:12:37.870Z,8.05
2017-11-11T13:13:23.290Z,8.05
2017-11-11T13:14:23.300Z,8.1
2017-11-11T13:15:23.351Z,8.1
2017-11-11T13:16:23.028Z,8.04
2017-11-11T13:17:23.362Z,8.05
2017-11-11T13:19:23.400Z,8.25
2017-11-11T13:20:38.032Z,8.26
2017-11-11T13:21:23.451Z,8.25
2017-11-11T13:22:23.448Z,8.26
2017-11-11T13:23:23.472Z,8.28
2017-11-11T13:24:38.108Z,8.29
2017-11-11T13:25:23.179Z,8.34
2017-11-11T13:26:23.205Z,8.22
2017-11-11T13:27:23.569Z,8.3
2017-11-11T13:28:23.565Z,8.19
2017-11-11T13:29:23.581Z,8.25
2017-11-11T13:30:23.613Z,8.25
2017-11-11T13:31:23.619Z,8.19
2017-11-11T13:32:23.302Z,8.11
2017-11-11T13:33:23.668Z,8.08
2017-11-11T13:34:23.702Z,8.18
2017-11-11T13:35:23.684Z,8.08
2017-11-11T13:36:38.317Z,8.01
2017-11-11T13:37:23.734Z,8.01
2017-11-11T13:38:23.748Z,8.11
2017-11-11T13:39:23.467Z,8.12
2017-11-11T13:40:23.469Z,8.16
2017-11-11T13:41:23.798Z,8.07
2017-11-11T13:42:23.827Z,8.08
2017-11-11T13:43:23.837Z,8.07
2017-11-11T13:44:23.871Z,8.08
2017-11-11T13:45:23.882Z,8.04
2017-11-11T13:46:23.887Z,8.01
2017-11-11T13:47:23.910Z,8
2017-11-11T13:48:38.546Z,8.02
2017-11-11T13:49:23.954Z,8.02
2017-11-11T13:50:23.987Z,7.93
2017-11-11T13:51:23.647Z,7.89
2017-11-11T13:52:38.625Z,7.86
2017-11-11T13:53:24.002Z,7.86
2017-11-11T13:54:24.025Z,8
2017-11-11T13:55:24.064Z,7.87
2017-11-11T13:56:24.082Z,7.83
2017-11-11T13:57:24.102Z,7.92
2017-11-11T13:58:38.737Z,7.83
2017-11-11T13:59:24.147Z,7.85
2017-11-11T14:00:24.151Z,7.86
2017-11-11T14:01:24.149Z,7.82
2017-11-11T14:02:24.177Z,7.74
2017-11-11T14:03:24.185Z,7.69
2017-11-11T14:04:24.218Z,7.77